Main page
METAR-TAF:

METAR-TAF

Airports :

Piešťany Airport

Piešťany, Slovakia

latitude: 48-37-30N, longitude: 017-49-43E, elevation: 163 m

Current weather observation

The report was made 26 minutes ago, at 23:30 UTC
Wind 8 kt from the North
Temperature 17°C
Humidity 88%
Pressure 1013 hPa
Visibility 10 km or more
no clouds below 1500 m and no cumulonimbus

METAR: LZPP 202330Z 36008KT CAVOK 17/15 Q1013

Time: 01:56 (23:56 UTC)

Forecast

The report was made 3 hours and 56 minutes ago, at 20:00 UTC
Forecast valid from 20 at 21 UTC to 21 at 06 UTC
Wind 3 kt from the North/Northeast
Visibility 10 km or more
no clouds below 1500 m and no cumulonimbus
Probability 40% :
Temporary
from 21 at 01 UTC to 21 at 05 UTC
Wind 2 kt from variable directions
Visibility: 4000 m
Scattered clouds at a height of 300 ft
Shallow fog

TAF: LZPP 202000Z 2021/2106 03003KT CAVOK PROB40 TEMPO 2101/2105 VRB02KT 4000 MIFG SCT003

Weather observations and forecasts of more than 4000 airports (METAR and TAF reports).

The available stations are represented by yellow and red dots on the map.

Hover mouse over dot to see the name of the station.

Then click to see weather observations and forecasts.

To change the map : click on the green buttons with a black cross to zoom in, on the green button with a dash to zoom out, or on the green arrows for adjacent maps.


METAR-TAF: